Time;durP1;ratioP1;P1;durP2;ratioP2;P2;SDS_P1;SDS_P2;PMS_P1;PMS_P2;Temp;Humidity;BMP_temperature;BMP_pressure;BME280_temperature;BME280_humidity;BME280_pressure;Samples;Min_cycle;Max_cycle;Signal;HPM_P1;HPM_P2
2023/12/22 00:01:17;;;;;;;;;;;;;;;4.95;75.24;97191.12;106874;1284;66884;-55
2023/12/22 00:04:05;;;;;;;;;;;;;;;5.01;75.44;97191.38;106893;1283;72517;-54
2023/12/22 00:06:52;;;;;;;;;;;;;;;5.02;74.16;97193.70;106911;1283;59377;-55
2023/12/22 00:09:37;;;;;;;;;;;;;;;5.04;76.23;97183.05;106925;1283;59771;-55
2023/12/22 00:12:23;;;;;;;;;;;;;;;5.02;73.95;97189.77;106925;1283;74483;-54
2023/12/22 00:15:09;;;;;;;;;;;;;;;5.04;73.40;97182.84;106948;1283;68717;-56
2023/12/22 00:17:55;;;;;;;;;;;;;;;5.03;73.05;97186.98;106872;1283;71373;-53
2023/12/22 00:20:41;;;;;;;;;;;;;;;5.04;74.21;97189.15;106910;1283;59000;-55
2023/12/22 00:23:26;;;;;;;;;;;;;;;5.02;73.79;97193.03;106916;1283;59066;-55
2023/12/22 00:26:12;;;;;;;;;;;;;;;5.00;74.18;97211.56;106882;1283;75718;-55
2023/12/22 00:28:58;;;;;;;;;;;;;;;4.95;71.97;97209.55;106945;1282;68443;-55
2023/12/22 00:31:44;;;;;;;;;;;;;;;4.96;73.16;97204.92;106856;1286;71746;-55
2023/12/22 00:34:30;;;;;;;;;;;;;;;4.92;72.84;97216.70;106928;1283;58630;-55
2023/12/22 00:37:16;;;;;;;;;;;;;;;4.90;72.62;97216.98;106870;1285;59766;-55
2023/12/22 00:40:05;;;;;;;;;;;;;;;4.87;73.72;97212.52;106922;1283;73307;-53
2023/12/22 00:42:51;;;;;;;;;;;;;;;4.83;72.77;97213.05;106950;1283;67461;-54
2023/12/22 00:45:36;;;;;;;;;;;;;;;4.81;74.26;97215.52;106904;1285;71370;-54
2023/12/22 00:48:22;;;;;;;;;;;;;;;4.79;73.59;97226.56;106917;1283;59419;-54
2023/12/22 00:51:08;;;;;;;;;;;;;;;4.77;72.60;97220.48;106953;1283;58890;-53
2023/12/22 00:53:54;;;;;;;;;;;;;;;4.77;72.19;97213.84;106951;1284;73210;-54
2023/12/22 00:56:40;;;;;;;;;;;;;;;4.78;71.19;97212.25;106884;1284;67257;-55
2023/12/22 00:59:26;;;;;;;;;;;;;;;4.82;72.40;97211.57;106958;1283;72970;-54
2023/12/22 01:02:11;;;;;;;;;;;;;;;4.79;72.08;97218.66;106901;1283;59266;-53
2023/12/22 01:04:57;;;;;;;;;;;;;;;4.77;71.17;97223.23;106916;1283;60673;-52
2023/12/22 01:07:43;;;;;;;;;;;;;;;4.73;70.97;97240.98;106878;1283;74738;-54
2023/12/22 01:10:29;;;;;;;;;;;;;;;4.73;72.55;97243.22;106904;1283;67203;-55
2023/12/22 01:13:15;;;;;;;;;;;;;;;4.69;72.99;97250.06;106930;1283;70205;-55
2023/12/22 01:16:01;;;;;;;;;;;;;;;4.61;72.29;97248.56;106917;1283;59155;-55
2023/12/22 01:18:46;;;;;;;;;;;;;;;4.61;73.43;97247.69;106912;1283;59232;-54
2023/12/22 01:21:32;;;;;;;;;;;;;;;4.57;72.63;97255.92;106915;1283;73470;-54
2023/12/22 01:24:18;;;;;;;;;;;;;;;4.56;74.00;97247.61;106946;1283;67180;-55
2023/12/22 01:27:04;;;;;;;;;;;;;;;4.52;73.52;97245.22;106890;1286;72156;-55
2023/12/22 01:29:50;;;;;;;;;;;;;;;4.50;72.68;97249.95;106862;1283;58903;-54
2023/12/22 01:32:36;;;;;;;;;;;;;;;4.48;73.48;97254.64;106915;1283;58849;-54
2023/12/22 01:35:22;;;;;;;;;;;;;;;4.47;72.86;97251.60;106524;1284;74994;-55
2023/12/22 01:38:08;;;;;;;;;;;;;;;4.45;73.42;97241.64;105646;1283;67765;-54
2023/12/22 01:40:54;;;;;;;;;;;;;;;4.41;72.95;97253.42;105660;1283;71424;-53
2023/12/22 01:43:40;;;;;;;;;;;;;;;4.41;73.90;97253.57;105639;1288;61189;-54
2023/12/22 01:46:27;;;;;;;;;;;;;;;4.41;73.78;97267.92;105604;1285;60997;-52
2023/12/22 01:49:14;;;;;;;;;;;;;;;4.40;74.49;97278.73;105614;1283;73205;-53
2023/12/22 01:52:00;;;;;;;;;;;;;;;4.35;75.62;97283.50;105619;1283;67338;-53
2023/12/22 01:54:46;;;;;;;;;;;;;;;4.19;76.51;97295.97;105645;1283;71815;-53
2023/12/22 01:57:34;;;;;;;;;;;;;;;4.02;77.86;97318.23;105689;1283;61712;-50
2023/12/22 02:00:21;;;;;;;;;;;;;;;3.78;80.23;97331.65;106419;1283;61170;-54
2023/12/22 02:03:07;;;;;;;;;;;;;;;3.53;82.21;97345.82;106939;1283;73257;-55
2023/12/22 02:05:54;;;;;;;;;;;;;;;3.35;82.61;97340.58;106859;1286;68340;-54
2023/12/22 02:08:40;;;;;;;;;;;;;;;3.20;82.39;97337.25;106508;1283;380688;-54
2023/12/22 02:11:26;;;;;;;;;;;;;;;3.06;83.36;97328.00;105614;1286;61176;-52
2023/12/22 02:14:12;;;;;;;;;;;;;;;2.95;83.07;97322.24;105639;1283;61470;-52
2023/12/22 02:17:30;;;;;;;;;;;;;;;2.90;84.65;97323.33;105592;1284;77630;-52
2023/12/22 02:20:17;;;;;;;;;;;;;;;2.87;83.28;97314.92;104691;1292;69050;-53
2023/12/22 02:23:03;;;;;;;;;;;;;;;2.88;84.79;97315.91;104704;1292;71385;-54
2023/12/22 02:25:56;;;;;;;;;;;;;;;2.87;83.90;97312.52;104744;1294;61598;-52
2023/12/22 02:28:43;;;;;;;;;;;;;;;2.86;84.70;97305.93;104787;1293;61309;-53
2023/12/22 02:31:35;;;;;;;;;;;;;;;2.91;84.35;97307.77;104636;1293;73382;-53
2023/12/22 02:34:22;;;;;;;;;;;;;;;2.99;83.14;97313.27;101754;1292;5003733;-55
2023/12/22 02:37:09;;;;;;;;;;;;;;;3.10;82.92;97314.41;105979;1292;71904;-53
2023/12/22 02:39:56;;;;;;;;;;;;;;;3.17;82.11;97316.29;106063;1292;59020;-54
2023/12/22 02:42:42;;;;;;;;;;;;;;;3.22;81.91;97311.14;106021;1291;59086;-54
2023/12/22 02:45:30;;;;;;;;;;;;;;;3.27;81.31;97316.89;105083;1291;74462;-54
2023/12/22 02:48:16;;;;;;;;;;;;;;;3.33;80.94;97311.92;104775;1292;68324;-54
2023/12/22 02:51:02;;;;;;;;;;;;;;;3.37;80.12;97314.98;104661;1294;71239;-54
2023/12/22 02:53:48;;;;;;;;;;;;;;;3.45;80.10;97317.24;104688;1293;61295;-54
2023/12/22 02:56:34;;;;;;;;;;;;;;;3.47;78.96;97325.66;105393;1283;61237;-54
2023/12/22 02:59:21;;;;;;;;;;;;;;;3.56;76.67;97325.63;105536;1286;73476;-53
2023/12/22 03:02:07;;;;;;;;;;;;;;;3.72;74.22;97349.29;105508;1285;68216;-54
2023/12/22 03:04:53;;;;;;;;;;;;;;;3.79;71.03;97338.77;105467;1286;71187;-53
2023/12/22 03:07:39;;;;;;;;;;;;;;;3.82;72.52;97345.80;105344;1285;60826;-54
2023/12/22 03:10:25;;;;;;;;;;;;;;;3.86;72.60;97356.05;105503;1284;61473;-52
2023/12/22 03:13:11;;;;;;;;;;;;;;;3.88;69.63;97359.53;105453;1286;74102;-55
2023/12/22 03:15:57;;;;;;;;;;;;;;;4.04;68.15;97362.30;105508;1286;71466;-53
2023/12/22 03:18:44;;;;;;;;;;;;;;;4.07;67.17;97370.15;105518;1285;72236;-51
2023/12/22 05:03:08;;;;;;;12.20;2.60;;;;;;;3.74;58.65;97435.06;108548;1257;613438;-88
2023/12/22 05:26:21;;;;;;;8.50;1.60;;;;;;;3.90;54.58;97439.04;105369;1284;613680;-56
2023/12/22 05:29:08;;;;;;;9.80;1.60;;;;;;;3.88;54.92;97429.58;105308;1281;157377;-55
2023/12/22 05:31:54;;;;;;;11.10;2.00;;;;;;;3.85;55.97;97425.10;105632;1281;59337;-55
2023/12/22 05:34:40;;;;;;;11.50;2.20;;;;;;;3.84;57.47;97420.02;105658;1281;73579;-58
2023/12/22 05:37:27;;;;;;;26.50;6.50;;;;;;;3.82;55.99;97423.50;105611;1283;67298;-54
2023/12/22 05:40:13;;;;;;;19.70;8.30;;;;;;;3.78;55.32;97428.61;105606;1281;73937;-55
2023/12/22 05:43:00;;;;;;;13.10;2.80;;;;;;;3.74;57.28;97418.70;105567;1282;59146;-58
2023/12/22 05:45:46;;;;;;;304.30;195.90;;;;;;;3.68;58.99;97440.75;105652;1281;59031;-56
2023/12/22 05:48:34;;;;;;;10.00;1.90;;;;;;;3.54;60.82;97424.29;105667;1281;71775;-58
2023/12/22 05:51:21;;;;;;;15.20;2.80;;;;;;;3.44;62.16;97417.55;105588;1281;67227;-56
2023/12/22 05:54:10;;;;;;;215.00;97.40;;;;;;;3.30;63.60;97425.39;105650;1281;75433;-55
2023/12/22 05:56:56;;;;;;;90.00;67.90;;;;;;;3.19;64.57;97429.02;106939;1281;57494;-54
2023/12/22 08:16:22;;;;;;;7.10;1.60;;;;;;;2.51;75.80;97434.98;105383;1285;612595;-55
2023/12/22 08:19:08;;;;;;;;;;;;;;;2.50;75.34;97444.86;105498;1281;126210;-55
2023/12/22 08:21:55;;;;;;;6.60;0.80;;;;;;;2.50;75.35;97441.62;105722;1281;59395;-55
2023/12/22 08:24:41;;;;;;;6.20;1.10;;;;;;;2.58;74.82;97449.34;105707;1281;73467;-56
2023/12/22 08:27:28;;;;;;;;;;;;;;;2.71;74.09;97443.59;105600;1283;71083;-55
2023/12/22 08:30:14;;;;;;;371.50;176.30;;;;;;;2.85;73.56;97450.05;105537;1284;71903;-56
2023/12/22 08:33:01;;;;;;;10.90;4.70;;;;;;;2.89;73.20;97450.77;105595;1281;58748;-54
2023/12/22 08:35:47;;;;;;;;;;;;;;;2.86;72.91;97442.20;107008;1281;58008;-57
2023/12/22 08:38:33;;;;;;;;;;;;;;;2.84;73.18;97444.50;107007;1281;70774;-56
2023/12/22 08:41:19;;;;;;;1457.60;459.40;;;;;;;2.81;72.69;97442.22;107007;1281;69533;-57
2023/12/22 08:44:06;;;;;;;6.40;1.50;;;;;;;2.79;72.89;97440.40;106914;1281;72204;-55
2023/12/22 08:46:52;;;;;;;711.90;297.20;;;;;;;2.86;72.94;97436.92;106957;1281;58441;-53
2023/12/22 08:49:38;;;;;;;28.10;9.50;;;;;;;2.81;72.62;97447.15;106871;1283;60710;-54
2023/12/22 08:52:24;;;;;;;118.70;108.70;;;;;;;2.76;73.14;97441.02;106919;1281;71739;-55
2023/12/22 08:55:10;;;;;;;145.70;98.10;;;;;;;2.74;73.35;97447.21;106981;1281;68323;-53
2023/12/22 08:57:56;;;;;;;2.40;0.80;;;;;;;2.74;73.67;97444.15;107006;1281;71281;-55
2023/12/22 09:00:42;;;;;;;5.30;1.10;;;;;;;2.75;73.61;97452.48;106932;1282;58371;-55
2023/12/22 09:03:33;;;;;;;29.70;13.00;;;;;;;2.76;73.92;97463.64;106902;1281;58728;-54
2023/12/22 09:06:21;;;;;;;2.30;0.80;;;;;;;2.75;73.72;97449.58;106075;1283;72149;-53
2023/12/22 09:09:09;;;;;;;22.60;6.40;;;;;;;2.78;73.80;97446.89;105661;1283;67218;-53
2023/12/22 09:11:55;;;;;;;14.20;6.90;;;;;;;2.78;73.69;97440.96;105628;1285;73321;-54
2023/12/22 09:14:42;;;;;;;108.20;81.10;;;;;;;2.78;73.90;97443.50;105611;1283;60469;-52
2023/12/22 09:17:28;;;;;;;30.40;14.60;;;;;;;2.76;73.99;97443.41;105536;1283;59533;-53
2023/12/22 09:20:15;;;;;;;4.40;1.00;;;;;;;2.83;73.94;97430.73;105631;1283;70657;-56
2023/12/22 09:23:05;;;;;;;5.00;1.20;;;;;;;2.86;73.93;97440.33;106666;1285;285683;-58
2023/12/22 09:25:51;;;;;;;32.10;9.80;;;;;;;2.88;73.51;97433.29;106715;1285;71840;-55
2023/12/22 09:28:37;;;;;;;10.80;1.40;;;;;;;2.92;72.93;97432.28;106789;1285;57353;-54
2023/12/22 09:31:23;;;;;;;5.60;1.20;;;;;;;3.00;72.79;97427.23;106820;1285;58859;-54
2023/12/22 09:34:09;;;;;;;6.10;1.20;;;;;;;3.10;72.21;97424.66;106778;1283;72816;-54
2023/12/22 09:36:56;;;;;;;5.30;0.90;;;;;;;3.15;72.08;97435.31;106775;1285;68533;-55
2023/12/22 09:39:42;;;;;;;6.80;2.60;;;;;;;3.13;71.69;97427.25;106775;1285;71342;-53
2023/12/22 09:42:28;;;;;;;371.60;122.30;;;;;;;3.11;71.63;97440.24;106744;1284;59233;-51
2023/12/22 09:45:19;;;;;;;8.00;2.60;;;;;;;3.12;71.57;97427.45;106782;1284;59936;-56
2023/12/22 09:48:07;;;;;;;812.10;302.80;;;;;;;3.14;71.70;97430.25;106778;1284;72971;-54
2023/12/22 09:50:54;;;;;;;369.50;163.60;;;;;;;3.10;72.43;97443.19;106797;1284;67459;-55
2023/12/22 09:53:41;;;;;;;56.40;24.00;;;;;;;3.00;73.24;97454.77;106781;1285;71494;-56
2023/12/22 09:56:29;;;;;;;257.60;101.80;;;;;;;2.92;74.66;97450.16;106536;1284;58251;-50
2023/12/22 09:59:17;;;;;;;9.20;1.40;;;;;;;2.81;76.04;97449.16;106716;1284;59692;-55
2023/12/22 10:02:05;;;;;;;5.80;1.40;;;;;;;2.78;76.85;97453.05;87848;1285;5005388;-55
2023/12/22 10:04:52;;;;;;;254.40;141.10;;;;;;;2.73;77.33;97452.38;106636;1285;71165;-52
2023/12/22 10:07:38;;;;;;;;;;;;;;;2.68;77.36;97448.63;106735;1284;58359;-55
2023/12/22 10:10:25;;;;;;;6.60;1.10;;;;;;;2.67;77.91;97448.32;106752;1285;58165;-54
2023/12/22 10:13:12;;;;;;;7.90;2.90;;;;;;;2.69;78.09;97439.74;106705;1285;71371;-55
2023/12/22 10:16:00;;;;;;;214.60;65.10;;;;;;;2.68;78.26;97442.16;106635;1283;67266;-55
2023/12/22 10:18:46;;;;;;;8.30;1.50;;;;;;;2.66;78.31;97433.37;106729;1285;71389;-55
2023/12/22 10:21:33;;;;;;;70.20;53.20;;;;;;;2.68;78.76;97430.09;106677;1285;57460;-53
2023/12/22 10:24:38;;;;;;;5.20;1.00;;;;;;;2.61;79.16;97433.71;106734;1284;58978;-55
2023/12/22 10:27:24;;;;;;;5.00;1.20;;;;;;;2.60;79.49;97435.30;106775;1285;71778;-55
2023/12/22 10:30:27;;;;;;;12.30;2.50;;;;;;;2.53;80.74;97444.58;106716;1288;68387;-55
2023/12/22 10:33:13;;;;;;;4.80;1.50;;;;;;;2.46;80.34;97459.62;106755;1283;71412;-55
2023/12/22 10:36:00;;;;;;;6.00;1.40;;;;;;;2.36;81.92;97460.64;106817;1284;57371;-56
2023/12/22 10:38:46;;;;;;;;;;;;;;;2.33;81.99;97463.14;106754;1285;58517;-56
2023/12/22 10:41:32;;;;;;;71.40;41.60;;;;;;;2.30;82.45;97461.35;106747;1284;72878;-54
2023/12/22 10:44:18;;;;;;;105.10;83.20;;;;;;;2.35;82.08;97452.84;106797;1285;67959;-55
2023/12/22 10:47:05;;;;;;;7.80;2.30;;;;;;;2.33;81.85;97452.05;106769;1285;71540;-56
2023/12/22 10:49:51;;;;;;;112.90;60.10;;;;;;;2.41;81.03;97456.91;106218;1285;59647;-52
2023/12/22 10:52:37;;;;;;;23.30;10.20;;;;;;;2.44;80.61;97453.73;105364;1285;60759;-55
2023/12/22 10:55:24;;;;;;;345.60;203.10;;;;;;;2.47;80.13;97454.15;105410;1284;74401;-57
2023/12/22 10:58:10;;;;;;;;;;;;;;;2.53;79.80;97455.31;105516;1285;68009;-58
2023/12/22 11:00:57;;;;;;;168.40;96.00;;;;;;;2.60;78.84;97456.73;105464;1285;71624;-53
2023/12/22 11:03:47;;;;;;;10.00;1.90;;;;;;;2.67;78.39;97447.28;105381;1285;59679;-54
2023/12/22 11:06:35;;;;;;;7.90;1.90;;;;;;;2.73;77.19;97454.59;105489;1286;61686;-58
2023/12/22 11:09:25;;;;;;;693.40;218.90;;;;;;;2.82;75.12;97463.42;106442;1285;71800;-57
2023/12/22 11:12:12;;;;;;;121.80;36.20;;;;;;;2.93;75.62;97457.74;105515;1285;67253;-57
2023/12/22 11:15:01;;;;;;;1349.40;396.10;;;;;;;3.02;74.25;97459.14;105443;1285;71194;-58
2023/12/22 11:17:49;;;;;;;6.00;1.20;;;;;;;3.15;72.43;97475.67;105573;1285;59640;-58
2023/12/22 11:20:38;;;;;;;8.60;1.90;;;;;;;3.28;72.67;97462.21;105455;1288;59661;-54
2023/12/22 11:23:25;;;;;;;15.60;4.20;;;;;;;3.38;71.95;97472.25;105407;1285;72571;-55
2023/12/22 11:26:13;;;;;;;23.30;2.70;;;;;;;3.47;72.68;97468.01;106759;1284;68310;-58
2023/12/22 11:28:59;;;;;;;21.00;2.90;;;;;;;3.52;71.08;97470.03;106763;1284;71276;-59
2023/12/22 11:31:50;;;;;;;8.30;1.70;;;;;;;3.59;70.66;97476.06;106769;1285;57395;-58
2023/12/22 11:34:38;;;;;;;222.90;79.80;;;;;;;3.64;69.84;97469.86;105683;1286;59758;-55
2023/12/22 11:37:24;;;;;;;9.00;2.50;;;;;;;3.74;70.28;97476.11;105485;1286;71828;-56
2023/12/22 11:40:11;;;;;;;1414.30;330.80;;;;;;;3.76;68.73;97479.27;105488;1285;70036;-57
2023/12/22 11:42:58;;;;;;;7.60;1.60;;;;;;;3.72;68.05;97471.92;105649;1284;72398;-58
2023/12/22 11:45:44;;;;;;;910.80;341.40;;;;;;;3.75;68.15;97469.29;105444;1284;59538;-57
2023/12/22 11:48:31;;;;;;;9.50;2.40;;;;;;;3.72;68.65;97479.10;105526;1285;59645;-56
2023/12/22 11:51:17;;;;;;;;;;;;;;;3.70;69.01;97487.87;105513;1283;75852;-57
2023/12/22 11:54:24;;;;;;;11.10;1.60;;;;;;;3.63;68.53;97490.55;105433;1285;67288;-55
2023/12/22 11:57:29;;;;;;;10.70;2.10;;;;;;;3.61;69.99;97490.25;105448;1284;72132;-57
2023/12/22 12:00:22;;;;;;;;;;;;;;;3.60;69.25;97495.27;105557;1285;59555;-57
2023/12/22 12:03:08;;;;;;;31.20;20.90;;;;;;;3.61;68.96;97509.02;105520;1285;59863;-56
2023/12/22 12:06:26;;;;;;;7.00;1.80;;;;;;;3.66;69.49;97504.19;105480;1285;74421;-58
2023/12/22 12:09:17;;;;;;;9.10;2.30;;;;;;;3.77;70.07;97504.46;105200;1288;72716;-56
2023/12/22 12:12:12;;;;;;;15.20;3.50;;;;;;;3.80;68.93;97521.56;105453;1286;74511;-55
2023/12/22 12:15:07;;;;;;;1008.40;186.70;;;;;;;3.83;69.45;97518.71;105502;1285;62892;-55
2023/12/22 12:17:53;;;;;;;8.60;2.00;;;;;;;3.81;67.99;97520.83;105520;1285;59701;-57
2023/12/22 12:20:40;;;;;;;379.80;188.40;;;;;;;3.86;68.44;97525.23;105509;1288;71567;-57
2023/12/22 12:23:27;;;;;;;11.00;2.30;;;;;;;3.86;67.93;97536.15;105485;1284;69913;-58
2023/12/22 12:26:14;;;;;;;17.60;5.70;;;;;;;3.91;68.42;97535.07;105446;1286;71309;-58
2023/12/22 12:29:01;;;;;;;15.20;2.90;;;;;;;3.96;67.80;97534.38;105428;1285;60044;-56
2023/12/22 12:31:48;;;;;;;10.20;2.30;;;;;;;4.02;68.10;97534.14;105474;1284;59552;-53
2023/12/22 12:34:34;;;;;;;204.70;85.30;;;;;;;4.05;67.84;97541.89;105481;1288;74333;-55
2023/12/22 12:37:21;;;;;;;412.70;169.00;;;;;;;4.05;66.97;97537.60;105565;1285;67192;-57
2023/12/22 12:40:10;;;;;;;6.80;1.70;;;;;;;4.06;67.27;97536.20;105495;1285;71197;-58
2023/12/22 12:42:57;;;;;;;6.80;2.00;;;;;;;4.16;67.73;97535.99;105974;1282;59739;-59
2023/12/22 12:45:43;;;;;;;11.80;2.00;;;;;;;4.19;67.63;97541.13;105613;1287;61527;-58
2023/12/22 12:48:29;;;;;;;15.40;3.50;;;;;;;4.19;67.37;97540.95;105548;1285;73040;-55
2023/12/22 12:51:16;;;;;;;8.90;2.20;;;;;;;4.10;66.72;97542.52;105525;1285;67245;-55
2023/12/22 12:54:02;;;;;;;17.00;3.70;;;;;;;4.08;67.40;97552.50;105460;1288;71378;-57
2023/12/22 12:56:48;;;;;;;;;;;;;;;4.03;66.64;97550.82;105553;1285;60348;-57
2023/12/22 12:59:35;;;;;;;10.60;2.10;;;;;;;4.04;67.58;97549.73;105551;1285;60345;-57
2023/12/22 13:02:22;;;;;;;8.60;1.80;;;;;;;4.00;66.73;97555.20;105452;1284;73874;-61
2023/12/22 13:05:10;;;;;;;9.90;1.50;;;;;;;3.97;67.10;97575.40;105462;1285;67300;-59
2023/12/22 13:08:11;;;;;;;425.00;183.50;;;;;;;3.91;67.43;97574.80;105485;1285;72551;-57
2023/12/22 13:11:01;;;;;;;14.80;2.10;;;;;;;3.84;67.35;97574.89;106001;1288;58524;-56
2023/12/22 13:13:48;;;;;;;54.70;14.40;;;;;;;3.80;67.19;97578.78;105598;1285;60332;-58
2023/12/22 13:16:35;;;;;;;47.30;23.70;;;;;;;3.77;66.45;97583.50;105450;1285;72418;-60
2023/12/22 13:19:22;;;;;;;19.50;2.70;;;;;;;3.75;66.95;97594.64;106789;1284;67518;-59
2023/12/22 13:22:09;;;;;;;9.80;2.50;;;;;;;3.78;66.96;97592.68;106769;1285;71289;-58
2023/12/22 13:24:59;;;;;;;15.20;3.60;;;;;;;3.79;66.54;97604.23;106697;1285;58210;-58
2023/12/22 13:27:49;;;;;;;8.10;1.90;;;;;;;3.81;66.26;97597.66;105548;1287;59820;-56
2023/12/22 13:30:40;;;;;;;46.80;9.40;;;;;;;3.85;66.64;97604.86;105542;1285;72459;-59
2023/12/22 13:33:28;;;;;;;11.80;2.30;;;;;;;3.83;66.63;97603.55;105502;1286;69057;-60
2023/12/22 13:36:15;;;;;;;13.20;2.20;;;;;;;3.83;66.76;97614.79;105506;1285;71257;-57
2023/12/22 13:39:03;;;;;;;14.50;4.00;;;;;;;3.84;65.49;97609.45;105416;1285;61266;-58
2023/12/22 13:41:49;;;;;;;13.40;2.00;;;;;;;3.87;65.70;97620.95;105480;1286;60477;-58
2023/12/22 13:44:46;;;;;;;54.50;17.00;;;;;;;3.88;65.09;97622.27;105397;1283;72466;-57
2023/12/22 13:47:33;;;;;;;11.60;3.10;;;;;;;3.89;65.21;97622.58;105451;1285;69937;-57
2023/12/22 13:50:22;;;;;;;;;;;;;;;3.89;65.15;97618.51;105472;1286;73329;-59
2023/12/22 13:53:09;;;;;;;11.90;2.00;;;;;;;3.88;65.44;97630.97;105482;1285;60485;-58
2023/12/22 13:55:57;;;;;;;14.40;2.90;;;;;;;3.86;65.94;97631.06;105494;1286;60338;-57
2023/12/22 13:58:47;;;;;;;30.70;10.10;;;;;;;3.83;64.97;97647.01;106790;1285;72570;-58
2023/12/22 14:01:33;;;;;;;30.90;9.80;;;;;;;3.85;65.52;97649.81;106782;1285;68625;-60
2023/12/22 14:04:19;;;;;;;15.50;2.80;;;;;;;3.86;65.28;97653.72;106689;1285;71207;-59
2023/12/22 14:07:14;;;;;;;19.80;8.00;;;;;;;3.88;65.07;97651.06;106752;1285;59714;-58
2023/12/22 14:10:08;;;;;;;13.50;2.70;;;;;;;3.91;64.93;97655.58;106780;1283;58791;-58
2023/12/22 14:12:54;;;;;;;19.10;2.40;;;;;;;3.93;65.15;97665.87;106814;1285;72445;-58
2023/12/22 14:15:44;;;;;;;7.00;1.80;;;;;;;3.93;64.44;97664.85;106468;1286;67894;-58
2023/12/22 14:18:30;;;;;;;119.60;91.50;;;;;;;3.94;64.44;97669.27;105498;1285;73953;-54
2023/12/22 14:21:17;;;;;;;14.50;3.00;;;;;;;3.93;63.47;97666.23;105496;1284;60404;-56
2023/12/22 14:24:04;;;;;;;14.80;2.60;;;;;;;3.91;64.60;97675.67;105547;1285;60325;-56
2023/12/22 14:26:55;;;;;;;56.70;9.10;;;;;;;3.86;63.47;97671.93;105463;1288;73635;-54
2023/12/22 14:29:41;;;;;;;14.40;3.30;;;;;;;3.84;62.41;97673.20;106679;1285;67288;-56
2023/12/22 14:32:36;;;;;;;11.30;4.10;;;;;;;3.85;62.72;97689.70;106692;1286;72197;-58
2023/12/22 14:35:22;;;;;;;9.00;2.00;;;;;;;3.83;63.50;97696.23;106712;1286;58191;-58
2023/12/22 14:38:31;;;;;;;9.20;2.60;;;;;;;3.79;62.53;97690.08;106751;1285;58523;-58
2023/12/22 14:41:17;;;;;;;10.00;2.40;;;;;;;3.81;62.24;97698.70;106737;1285;73838;-60
2023/12/22 14:44:03;;;;;;;204.20;52.50;;;;;;;3.81;62.60;97696.84;105843;1288;68569;-56
2023/12/22 14:46:49;;;;;;;16.20;2.70;;;;;;;3.79;62.54;97705.75;105452;1285;73946;-57
2023/12/22 14:49:35;;;;;;;11.90;2.40;;;;;;;3.76;62.62;97711.48;105516;1284;60447;-54
2023/12/22 14:52:22;;;;;;;17.30;2.30;;;;;;;3.73;61.84;97711.43;105490;1285;61038;-57
2023/12/22 14:55:09;;;;;;;8.30;2.90;;;;;;;3.69;60.61;97704.42;105339;1285;73288;-56
2023/12/22 14:57:55;;;;;;;9.90;2.10;;;;;;;3.68;61.09;97711.09;105447;1286;70027;-54
2023/12/22 15:00:41;;;;;;;15.30;3.10;;;;;;;3.65;60.16;97728.92;105374;1288;71117;-58
2023/12/22 15:03:28;;;;;;;14.30;2.00;;;;;;;3.63;60.62;97727.42;105367;1285;60841;-57
2023/12/22 15:06:14;;;;;;;;;;;;;;;3.62;60.27;97731.59;105388;1285;60717;-53
2023/12/22 15:09:01;;;;;;;23.20;3.10;;;;;;;3.57;60.39;97741.29;105374;1286;76339;-59
2023/12/22 15:11:47;;;;;;;14.00;2.10;;;;;;;3.54;60.31;97750.94;105287;1285;67244;-54
2023/12/22 15:14:33;;;;;;;853.60;228.40;;;;;;;3.51;60.61;97746.60;105440;1284;72734;-55
2023/12/22 15:17:20;;;;;;;25.60;2.80;;;;;;;3.47;59.85;97746.05;105456;1284;60571;-51
2023/12/22 15:20:08;;;;;;;13.20;2.50;;;;;;;3.44;59.89;97755.02;105466;1284;60345;-56
2023/12/22 15:23:09;;;;;;;275.20;115.10;;;;;;;3.41;59.47;97759.39;106726;1285;72681;-57
2023/12/22 15:25:55;;;;;;;11.90;2.40;;;;;;;3.41;59.09;97742.53;106546;1288;67424;-58
2023/12/22 15:28:41;;;;;;;10.80;1.80;;;;;;;3.43;59.59;97760.15;106712;1285;71208;-58
2023/12/22 15:31:28;;;;;;;11.30;2.60;;;;;;;3.42;59.70;97754.05;106711;1284;58186;-56
2023/12/22 15:34:17;;;;;;;15.90;3.10;;;;;;;3.42;59.67;97758.83;106571;1285;60025;-55
2023/12/22 15:37:25;;;;;;;13.10;2.70;;;;;;;3.43;59.70;97766.46;106702;1285;72492;-59
2023/12/22 15:40:31;;;;;;;6.70;2.40;;;;;;;3.43;59.15;97753.00;106756;1286;67170;-59
2023/12/22 15:43:17;;;;;;;36.00;11.60;;;;;;;3.43;59.31;97763.55;105852;1292;71394;-60
2023/12/22 15:46:07;;;;;;;15.10;2.00;;;;;;;3.42;59.63;97762.40;105893;1293;58445;-59
2023/12/22 15:48:53;;;;;;;15.20;2.30;;;;;;;3.40;59.35;97772.00;105852;1293;59997;-58
2023/12/22 15:51:45;;;;;;;13.40;10.00;;;;;;;3.38;59.67;97765.78;105893;1292;72210;-57
2023/12/22 15:54:34;;;;;;;126.70;19.40;;;;;;;3.35;59.45;97777.11;105878;1293;69092;-59
2023/12/22 15:57:28;;;;;;;18.20;2.10;;;;;;;3.34;59.30;97771.02;105841;1293;72360;-58
2023/12/22 16:00:26;;;;;;;;;;;;;;;;;;;;;
2023/12/22 16:03:14;;;;;;;8.90;1.80;;;;;;;3.34;59.26;97772.70;105851;1293;59219;-55
2023/12/22 16:06:04;;;;;;;10.60;1.40;;;;;;;3.32;59.56;97777.02;105845;1294;73757;-58
2023/12/22 16:08:50;;;;;;;7.90;1.70;;;;;;;3.30;58.50;97781.66;105853;1294;68542;-58
2023/12/22 16:11:39;;;;;;;95.30;28.80;;;;;;;3.33;58.33;97769.69;105819;1293;72946;-59
2023/12/22 16:14:25;;;;;;;10.70;2.00;;;;;;;3.35;58.67;97785.46;105759;1294;58457;-58
2023/12/22 16:17:11;;;;;;;14.10;2.50;;;;;;;3.33;59.65;97791.65;105859;1294;60535;-58
2023/12/22 16:20:00;;;;;;;16.20;3.50;;;;;;;3.30;59.67;97792.77;106068;1286;73173;-59
2023/12/22 16:22:46;;;;;;;9.40;2.10;;;;;;;3.30;59.01;97798.70;106802;1285;68011;-58
2023/12/22 16:25:32;;;;;;;19.10;2.60;;;;;;;3.32;58.95;97803.42;106740;1284;71792;-57
2023/12/22 16:28:19;;;;;;;10.50;1.50;;;;;;;3.32;59.36;97806.99;106722;1283;58240;-57
2023/12/22 16:31:05;;;;;;;10.50;2.80;;;;;;;3.32;59.29;97811.26;106758;1285;58843;-58
2023/12/22 16:33:51;;;;;;;14.60;6.10;;;;;;;3.30;59.04;97817.27;106759;1286;72426;-57
2023/12/22 16:36:37;;;;;;;74.50;40.60;;;;;;;3.31;59.08;97820.48;106793;1285;67948;-55
2023/12/22 16:39:23;;;;;;;12.20;1.70;;;;;;;3.31;58.78;97822.53;106746;1285;73136;-59
2023/12/22 16:42:09;;;;;;;207.20;45.40;;;;;;;3.31;59.21;97827.61;106599;1284;58507;-52
2023/12/22 16:44:55;;;;;;;14.30;3.00;;;;;;;3.33;58.61;97826.19;106650;1286;58773;-58
2023/12/22 16:47:41;;;;;;;13.30;1.80;;;;;;;3.35;58.91;97834.33;106709;1288;73337;-59
2023/12/22 16:50:27;;;;;;;9.20;1.70;;;;;;;3.34;59.25;97835.55;106759;1284;66149;-58
2023/12/22 16:53:13;;;;;;;10.50;1.90;;;;;;;3.32;59.52;97838.30;106720;1285;72075;-59
2023/12/22 16:56:01;;;;;;;17.90;3.30;;;;;;;3.32;59.62;97837.83;106731;1285;58040;-58
2023/12/22 16:58:47;;;;;;;14.70;2.60;;;;;;;3.29;59.94;97851.00;106724;1286;58820;-58
2023/12/22 17:01:33;;;;;;;9.90;1.70;;;;;;;3.29;59.69;97844.55;106744;1285;73507;-59
2023/12/22 17:04:19;;;;;;;11.30;2.50;;;;;;;3.28;59.76;97848.99;106682;1286;68646;-59
2023/12/22 17:07:07;;;;;;;11.90;2.10;;;;;;;3.27;59.57;97843.59;106597;1286;213923;-58
2023/12/22 17:09:53;;;;;;;9.10;1.80;;;;;;;3.25;59.63;97852.65;106711;1285;58211;-58
2023/12/22 17:12:39;;;;;;;12.60;2.00;;;;;;;3.25;59.23;97852.52;106769;1285;59188;-58
2023/12/22 17:15:25;;;;;;;12.00;2.10;;;;;;;3.22;59.01;97854.27;106735;1285;73738;-59
2023/12/22 17:18:11;;;;;;;25.60;2.80;;;;;;;3.20;59.15;97859.65;106763;1286;68199;-59
2023/12/22 17:20:57;;;;;;;15.40;1.80;;;;;;;3.18;59.10;97861.58;106806;1286;71118;-58
2023/12/22 17:23:43;;;;;;;8.70;1.50;;;;;;;3.17;59.04;97858.70;106697;1285;58427;-58
2023/12/22 17:26:29;;;;;;;7.40;1.70;;;;;;;3.16;59.10;97853.64;106797;1286;58783;-58
2023/12/22 17:29:15;;;;;;;13.30;1.60;;;;;;;3.15;58.36;97860.48;106817;1283;74731;-56
2023/12/22 17:32:06;;;;;;;8.90;1.60;;;;;;;3.13;58.55;97860.02;106727;1286;67214;-58
2023/12/22 17:34:52;;;;;;;378.80;69.20;;;;;;;3.13;58.70;97871.08;106737;1285;72242;-57
2023/12/22 17:37:38;;;;;;;9.80;1.50;;;;;;;3.13;58.85;97869.39;106735;1284;58622;-55
2023/12/22 17:40:25;;;;;;;7.50;1.90;;;;;;;3.09;58.68;97873.60;105756;1285;60072;-54
2023/12/22 17:43:11;;;;;;;6.70;1.90;;;;;;;3.07;59.26;97877.60;105503;1287;72462;-57